createdAt,value
2022-11-24T00:00:02.037Z,95299.84
2022-11-24T00:02:29.241Z,95302.50
2022-11-24T00:04:56.395Z,95301.31
2022-11-24T00:07:23.519Z,95306.34
2022-11-24T00:09:50.674Z,95307.75
2022-11-24T00:12:19.255Z,95307.94
2022-11-24T00:14:46.776Z,95311.75
2022-11-24T00:17:13.955Z,95306.66
2022-11-24T00:19:41.094Z,95310.91
2022-11-24T00:22:08.154Z,95318.34
2022-11-24T00:24:35.533Z,95314.94
2022-11-24T00:27:02.894Z,95318.25
2022-11-24T00:29:31.494Z,95323.66
2022-11-24T00:31:58.794Z,95319.59
2022-11-24T00:34:25.916Z,95326.25
2022-11-24T00:36:52.965Z,95323.81
2022-11-24T00:39:20.054Z,95334.75
2022-11-24T00:41:47.274Z,95335.97
2022-11-24T00:44:14.448Z,95336.78
2022-11-24T00:46:43.485Z,95337.38
2022-11-24T00:49:10.715Z,95344.66
2022-11-24T00:51:37.834Z,95340.81
2022-11-24T00:54:04.935Z,95344.03
2022-11-24T00:56:32.414Z,95342.06
2022-11-24T00:58:59.516Z,95341.22
2022-11-24T01:01:28.854Z,95345.44
2022-11-24T01:03:59.594Z,95344.44
2022-11-24T01:06:28.395Z,95342.81
2022-11-24T01:08:57.795Z,95350.91
2022-11-24T01:11:27.975Z,95352.94
2022-11-24T01:13:57.220Z,95350.09
2022-11-24T01:16:28.615Z,95352.50
2022-11-24T01:18:57.814Z,95358.78
2022-11-24T01:21:25.073Z,95360.97
2022-11-24T01:23:52.441Z,95361.63
2022-11-24T01:26:22.701Z,95360.03
2022-11-24T01:28:53.696Z,95360.22
2022-11-24T01:31:20.852Z,95371.88
2022-11-24T01:33:47.984Z,95371.28
2022-11-24T01:36:16.763Z,95376.38
2022-11-24T01:38:43.843Z,95372.94
2022-11-24T01:41:13.905Z,95370.09
2022-11-24T01:43:41.744Z,95370.69
2022-11-24T01:46:20.486Z,95372.50
2022-11-24T01:48:56.223Z,95379.38
2022-11-24T01:51:29.663Z,95377.13
2022-11-24T01:54:01.204Z,95375.94
2022-11-24T01:56:30.465Z,95381.75
2022-11-24T01:59:02.864Z,95393.28
2022-11-24T02:01:30.844Z,95386.59
2022-11-24T02:04:01.565Z,95390.63
2022-11-24T02:06:35.083Z,95392.06
2022-11-24T02:09:10.418Z,95392.88
2022-11-24T02:11:40.355Z,95394.66
2022-11-24T02:14:11.966Z,95398.72
2022-11-24T02:16:44.633Z,95401.75
2022-11-24T02:19:23.210Z,95406.41
2022-11-24T02:21:52.075Z,95402.75
2022-11-24T02:24:30.538Z,95390.25
2022-11-24T02:26:59.935Z,95388.44
2022-11-24T02:29:27.077Z,95388.44
2022-11-24T02:32:00.576Z,95392.91
2022-11-24T02:34:28.353Z,95387.00
2022-11-24T02:36:55.419Z,95384.94
2022-11-24T02:39:22.614Z,95386.41
2022-11-24T02:41:54.817Z,95393.28
2022-11-24T02:44:28.694Z,95400.53
2022-11-24T02:47:03.120Z,95394.09
2022-11-24T02:49:30.353Z,95399.38
2022-11-24T02:51:57.463Z,95402.16
2022-11-24T02:54:24.614Z,95404.69
2022-11-24T02:56:51.794Z,95411.31
2022-11-24T02:59:19.357Z,95408.00
2022-11-24T03:01:48.145Z,95414.03
2022-11-24T03:04:15.445Z,95414.34
2022-11-24T03:06:42.596Z,95412.47
2022-11-24T03:09:10.695Z,95421.34
2022-11-24T03:11:37.794Z,95420.09
2022-11-24T03:14:05.721Z,95414.75
2022-11-24T03:16:33.220Z,95423.22
2022-11-24T03:19:02.222Z,95414.72
2022-11-24T03:21:29.695Z,95421.56
2022-11-24T03:23:57.094Z,95418.00
2022-11-24T03:26:25.755Z,95423.28
2022-11-24T03:28:54.557Z,95420.47
2022-11-24T03:31:22.382Z,95418.88
2022-11-24T03:33:49.727Z,95408.72
2022-11-24T03:36:18.655Z,95415.03
2022-11-24T03:38:45.757Z,95424.44
2022-11-24T03:41:13.158Z,95417.97
2022-11-24T03:43:43.724Z,95420.78
2022-11-24T03:46:11.892Z,95422.59
2022-11-24T03:48:39.635Z,95421.91
2022-11-24T03:51:07.464Z,95422.28
2022-11-24T03:53:36.636Z,95428.09
2022-11-24T03:56:04.578Z,95423.28
2022-11-24T03:58:32.112Z,95434.28
2022-11-24T04:00:59.184Z,95425.22
2022-11-24T04:03:26.375Z,95426.75
2022-11-24T04:05:53.636Z,95428.81
2022-11-24T04:08:20.817Z,95435.91
2022-11-24T04:10:53.118Z,95443.13
2022-11-24T04:13:23.739Z,95443.25
2022-11-24T04:15:51.999Z,95439.38
2022-11-24T04:18:20.154Z,95444.41
2022-11-24T04:20:50.639Z,95450.47
2022-11-24T04:23:17.975Z,95449.50
2022-11-24T04:25:45.098Z,95455.91
2022-11-24T04:28:13.656Z,95458.13
2022-11-24T04:30:40.748Z,95454.59
2022-11-24T04:33:07.837Z,95453.38
2022-11-24T04:35:35.836Z,95449.69
2022-11-24T04:38:02.931Z,95445.47
2022-11-24T04:40:30.377Z,95453.50
2022-11-24T04:42:58.019Z,95457.19
2022-11-24T04:45:26.579Z,95465.31
2022-11-24T04:47:53.659Z,95477.97
2022-11-24T04:50:20.715Z,95477.47
2022-11-24T04:52:47.816Z,95482.56
2022-11-24T04:55:14.975Z,95483.97
2022-11-24T04:57:42.076Z,95471.94
2022-11-24T05:00:10.568Z,95467.09
2022-11-24T05:02:39.342Z,95469.88
2022-11-24T05:05:07.676Z,95458.53
2022-11-24T05:07:34.929Z,95452.56
2022-11-24T05:10:02.544Z,95466.34
2022-11-24T05:12:29.829Z,95463.72
2022-11-24T05:14:57.648Z,95472.28
2022-11-24T05:17:24.837Z,95467.66
2022-11-24T05:19:53.369Z,95470.69
2022-11-24T05:22:20.388Z,95475.66
2022-11-24T05:24:47.489Z,95477.78
2022-11-24T05:27:14.586Z,95473.81
2022-11-24T05:29:41.726Z,95475.78
2022-11-24T05:32:08.843Z,95479.94
2022-11-24T05:34:36.114Z,95478.78
2022-11-24T05:37:05.019Z,95486.09
2022-11-24T05:39:32.199Z,95475.38
2022-11-24T05:41:59.381Z,95489.69
2022-11-24T05:44:26.481Z,95492.81
2022-11-24T05:46:53.604Z,95493.34
2022-11-24T05:49:20.694Z,95499.50
2022-11-24T05:51:47.794Z,95495.75
2022-11-24T05:54:16.556Z,95489.00
2022-11-24T05:56:43.556Z,95489.91
2022-11-24T05:59:10.735Z,95493.00
2022-11-24T06:01:37.962Z,95488.59
2022-11-24T06:04:05.214Z,95486.09
2022-11-24T06:06:32.309Z,95482.22
2022-11-24T06:08:59.449Z,95477.91
2022-11-24T06:11:28.088Z,95479.25
2022-11-24T06:13:55.244Z,95483.00
2022-11-24T06:16:22.902Z,95496.59
2022-11-24T06:18:49.970Z,95497.53
2022-11-24T06:21:16.990Z,95497.09
2022-11-24T06:23:44.103Z,95496.75
2022-11-24T06:26:11.164Z,95497.25
2022-11-24T06:28:39.728Z,95496.16
2022-11-24T06:31:06.906Z,95495.22
2022-11-24T06:33:35.498Z,95503.25
2022-11-24T06:36:03.757Z,95496.94
2022-11-24T06:38:31.428Z,95493.53
2022-11-24T06:41:03.568Z,95496.88
2022-11-24T06:43:31.351Z,95490.38
2022-11-24T06:45:59.964Z,95503.75
2022-11-24T06:48:27.767Z,95498.28
2022-11-24T06:50:58.526Z,95502.31
2022-11-24T06:53:25.607Z,95510.28
2022-11-24T06:55:53.722Z,95509.63
2022-11-24T06:58:20.762Z,95508.50
2022-11-24T07:00:47.947Z,95512.91
2022-11-24T07:03:17.610Z,95514.28
2022-11-24T07:05:44.684Z,95515.91
2022-11-24T07:08:17.401Z,95514.81
2022-11-24T07:10:45.104Z,95517.88
2022-11-24T07:13:12.494Z,95523.00
2022-11-24T07:15:39.585Z,95530.63
2022-11-24T07:18:06.750Z,95537.75
2022-11-24T07:20:36.010Z,95539.56
2022-11-24T07:23:03.390Z,95552.44
2022-11-24T07:25:30.443Z,95551.28
2022-11-24T07:27:57.961Z,95556.19
2022-11-24T07:30:25.421Z,95568.34
2022-11-24T07:32:52.676Z,95563.16
2022-11-24T07:35:19.807Z,95563.66
2022-11-24T07:37:48.380Z,95568.47
2022-11-24T07:40:16.008Z,95564.97
2022-11-24T07:42:43.063Z,95558.84
2022-11-24T07:45:11.099Z,95550.22
2022-11-24T07:47:40.068Z,95556.66
2022-11-24T07:50:08.767Z,95553.28
2022-11-24T07:52:36.058Z,95550.69
2022-11-24T07:55:05.762Z,95548.22
2022-11-24T07:57:32.923Z,95547.41
2022-11-24T08:00:00.128Z,95544.03
2022-11-24T08:02:27.328Z,95547.03
2022-11-24T08:04:54.399Z,95547.72
2022-11-24T08:07:21.639Z,95543.75
2022-11-24T08:09:48.873Z,95547.09
2022-11-24T08:12:17.413Z,95560.81
2022-11-24T08:14:44.671Z,95557.41
2022-11-24T08:17:11.825Z,95554.69
2022-11-24T08:19:39.149Z,95559.81
2022-11-24T08:22:06.311Z,95554.97
2022-11-24T08:24:33.612Z,95562.78
2022-11-24T08:27:01.131Z,95569.78
2022-11-24T08:29:30.749Z,95572.31
2022-11-24T08:31:58.494Z,95561.72
2022-11-24T08:34:27.330Z,95565.50
2022-11-24T08:36:54.490Z,95573.03
2022-11-24T08:39:21.670Z,95567.72
2022-11-24T08:41:48.709Z,95576.56
2022-11-24T08:44:16.121Z,95574.72
2022-11-24T08:46:45.125Z,95588.81
2022-11-24T08:49:12.726Z,95591.78
2022-11-24T08:51:40.247Z,95595.31
2022-11-24T08:54:09.109Z,95599.28
2022-11-24T08:56:36.948Z,95601.84
2022-11-24T08:59:04.040Z,95609.03
2022-11-24T09:01:31.165Z,95609.03
2022-11-24T09:03:59.811Z,95606.38
2022-11-24T09:06:29.851Z,95603.63
2022-11-24T09:08:58.307Z,95610.50
2022-11-24T09:11:27.168Z,95603.41
2022-11-24T09:13:55.251Z,95607.63
2022-11-24T09:16:24.881Z,95609.47
2022-11-24T09:18:57.960Z,95604.88
2022-11-24T09:21:26.949Z,95608.59
2022-11-24T09:23:56.315Z,95602.59
2022-11-24T09:26:26.725Z,95608.50
2022-11-24T09:28:55.618Z,95615.19
2022-11-24T09:31:25.107Z,95621.97
2022-11-24T09:33:52.943Z,95616.03
2022-11-24T09:36:20.363Z,95626.59
2022-11-24T09:38:49.760Z,95622.47
2022-11-24T09:41:43.120Z,95619.25
2022-11-24T09:44:37.038Z,95628.22
2022-11-24T09:47:16.899Z,95626.59
2022-11-24T09:49:53.503Z,95629.22
2022-11-24T09:52:36.000Z,95630.09
2022-11-24T09:55:16.183Z,95635.72
2022-11-24T09:57:44.698Z,95635.06
2022-11-24T10:00:14.757Z,95633.47
2022-11-24T10:02:42.141Z,95630.66
2022-11-24T10:05:13.208Z,95636.75
2022-11-24T10:07:53.399Z,95633.06
2022-11-24T10:10:30.760Z,95635.41
2022-11-24T10:13:13.205Z,95633.34
2022-11-24T10:15:52.052Z,95637.16
2022-11-24T10:18:43.591Z,95622.25
2022-11-24T10:21:31.424Z,95622.25
2022-11-24T10:24:20.982Z,95617.00
2022-11-24T10:26:57.192Z,95616.34
2022-11-24T10:29:32.606Z,95616.00
2022-11-24T10:32:05.950Z,95620.78
2022-11-24T10:34:40.135Z,95629.28
2022-11-24T10:37:20.531Z,95625.66
2022-11-24T10:40:00.369Z,95633.13
2022-11-24T10:42:32.689Z,95624.88
2022-11-24T10:45:01.992Z,95629.91
2022-11-24T10:47:30.810Z,95623.25
2022-11-24T10:50:02.960Z,95619.69
2022-11-24T10:52:39.050Z,95627.72
2022-11-24T10:55:07.514Z,95628.09
2022-11-24T10:57:37.829Z,95638.44
2022-11-24T11:00:32.195Z,95634.31
2022-11-24T11:03:17.634Z,95632.91
2022-11-24T11:05:50.930Z,95623.09
2022-11-24T11:08:23.554Z,95625.47
2022-11-24T11:11:08.353Z,95636.16
2022-11-24T11:13:38.435Z,95637.03
2022-11-24T11:16:25.309Z,95632.50
2022-11-24T11:18:55.331Z,95628.91
2022-11-24T11:21:32.153Z,95625.94
2022-11-24T11:24:15.854Z,95621.53
2022-11-24T11:26:43.857Z,95626.22
2022-11-24T11:35:13.109Z,95623.59
2022-11-24T11:37:41.410Z,95616.03
2022-11-24T11:40:15.993Z,95622.13
2022-11-24T11:43:05.221Z,95609.91
2022-11-24T11:45:36.593Z,95615.09
2022-11-24T11:48:24.025Z,95609.09
2022-11-24T11:51:22.304Z,95619.84
2022-11-24T11:53:56.381Z,95620.13
2022-11-24T11:56:28.413Z,95614.44
2022-11-24T11:59:24.015Z,95614.88
2022-11-24T12:02:17.176Z,95616.41
2022-11-24T12:04:53.070Z,95614.84
2022-11-24T12:07:44.859Z,95611.16
2022-11-24T12:10:28.926Z,95605.81
2022-11-24T12:13:26.265Z,95612.00
2022-11-24T12:15:57.572Z,95607.84
2022-11-24T12:18:57.051Z,95609.59
2022-11-24T12:21:34.469Z,95605.28
2022-11-24T12:24:16.445Z,95593.69
2022-11-24T12:26:49.086Z,95593.34
2022-11-24T12:29:51.787Z,95603.19
2022-11-24T12:32:36.749Z,95594.88
2022-11-24T12:35:20.693Z,95588.06
2022-11-24T12:38:00.364Z,95590.19
2022-11-24T12:40:46.700Z,95588.38
2022-11-24T12:43:25.126Z,95579.97
2022-11-24T12:46:02.311Z,95573.63
2022-11-24T12:48:43.204Z,95570.88
2022-11-24T12:51:19.114Z,95554.47
2022-11-24T12:53:49.966Z,95558.47
2022-11-24T12:56:26.067Z,95551.81
2022-11-24T12:59:15.586Z,95547.06
2022-11-24T13:01:51.261Z,95535.78
2022-11-24T13:04:33.082Z,95527.84
2022-11-24T13:07:10.494Z,95519.88
2022-11-24T13:09:38.007Z,95520.25
2022-11-24T13:12:13.518Z,95513.66
2022-11-24T13:14:46.004Z,95507.91
2022-11-24T13:17:37.919Z,95511.75
2022-11-24T13:20:23.265Z,95501.50
2022-11-24T13:22:54.144Z,95508.56
2022-11-24T13:25:24.829Z,95513.53
2022-11-24T13:27:54.047Z,95506.78
2022-11-24T13:30:56.399Z,95502.72
2022-11-24T13:33:40.549Z,95495.34
2022-11-24T13:36:33.483Z,95487.91
2022-11-24T13:39:04.489Z,95478.81
2022-11-24T13:42:07.601Z,95480.63
2022-11-24T13:44:45.943Z,95478.63
2022-11-24T13:47:37.526Z,95470.38
2022-11-24T13:50:08.405Z,95469.84
2022-11-24T13:52:43.990Z,95462.34
2022-11-24T13:55:27.470Z,95461.31
2022-11-24T13:58:00.091Z,95455.81
2022-11-24T14:00:30.006Z,95457.72
2022-11-24T14:03:01.431Z,95446.75
2022-11-24T14:05:37.649Z,95453.19
2022-11-24T14:08:16.629Z,95455.47
2022-11-24T14:10:46.408Z,95454.31
2022-11-24T14:13:24.166Z,95442.06
2022-11-24T14:16:04.307Z,95433.44
2022-11-24T14:18:32.584Z,95433.31
2022-11-24T14:21:15.827Z,95429.88
2022-11-24T14:23:48.004Z,95423.00
2022-11-24T14:26:21.366Z,95439.22
2022-11-24T14:28:49.903Z,95435.97
2022-11-24T14:31:21.934Z,95429.31
2022-11-24T14:33:49.705Z,95427.22
2022-11-24T14:36:19.163Z,95421.53
2022-11-24T14:38:47.306Z,95399.97
2022-11-24T14:41:24.125Z,95407.50
2022-11-24T14:44:03.325Z,95413.53
2022-11-24T14:46:30.966Z,95412.00
2022-11-24T14:48:58.587Z,95411.19
2022-11-24T14:51:30.430Z,95410.50
2022-11-24T14:54:01.285Z,95408.63
2022-11-24T14:56:34.467Z,95408.47
2022-11-24T14:59:01.946Z,95406.94
2022-11-24T15:01:32.629Z,95398.97
2022-11-24T15:04:32.467Z,95404.38
2022-11-24T15:07:06.478Z,95399.31
2022-11-24T15:09:41.387Z,95390.78
2022-11-24T15:12:24.067Z,95389.84
2022-11-24T15:14:53.485Z,95402.22
2022-11-24T15:17:24.024Z,95401.84
2022-11-24T15:19:55.686Z,95408.47
2022-11-24T15:22:41.027Z,95412.19
2022-11-24T15:25:30.304Z,95420.47
2022-11-24T15:27:59.005Z,95433.59
2022-11-24T15:30:26.757Z,95434.19
2022-11-24T15:32:56.286Z,95438.00
2022-11-24T15:35:26.007Z,95438.56
2022-11-24T15:37:53.085Z,95443.47
2022-11-24T15:40:20.386Z,95439.47
2022-11-24T15:42:51.990Z,95444.13
2022-11-24T15:45:22.806Z,95442.34
2022-11-24T15:47:50.612Z,95445.41
2022-11-24T15:50:18.128Z,95441.06
2022-11-24T15:52:46.446Z,95447.41
2022-11-24T15:55:19.030Z,95440.97
2022-11-24T15:57:47.772Z,95438.50
2022-11-24T16:00:18.071Z,95445.47
2022-11-24T16:02:47.226Z,95447.72
2022-11-24T16:05:16.187Z,95449.53
2022-11-24T16:07:43.889Z,95454.31
2022-11-24T16:10:23.970Z,95448.47
2022-11-24T16:12:51.027Z,95448.97
2022-11-24T16:15:18.210Z,95452.00
2022-11-24T16:17:47.066Z,95450.41
2022-11-24T16:20:14.787Z,95453.69
2022-11-24T16:22:42.227Z,95451.47
2022-11-24T16:25:10.608Z,95453.50
2022-11-24T16:27:38.079Z,95455.34
2022-11-24T16:30:08.592Z,95453.16
2022-11-24T16:32:36.046Z,95450.53
2022-11-24T16:35:05.891Z,95451.97
2022-11-24T16:37:33.447Z,95446.94
2022-11-24T16:40:00.668Z,95453.00
2022-11-24T16:42:28.308Z,95453.78
2022-11-24T16:44:55.508Z,95455.63
2022-11-24T16:47:22.968Z,95449.34
2022-11-24T16:49:50.167Z,95451.16
2022-11-24T16:52:18.926Z,95461.47
2022-11-24T16:54:46.568Z,95456.63
2022-11-24T16:57:15.088Z,95446.13
2022-11-24T16:59:43.168Z,95435.84
2022-11-24T17:02:12.443Z,95437.66
2022-11-24T17:04:40.028Z,95436.91
2022-11-24T17:07:07.517Z,95436.09
2022-11-24T17:09:40.601Z,95430.06
2022-11-24T17:12:08.127Z,95425.63
2022-11-24T17:14:35.470Z,95429.91
2022-11-24T17:17:05.276Z,95430.31
2022-11-24T17:19:32.487Z,95428.34
2022-11-24T17:21:59.570Z,95428.53
2022-11-24T17:24:28.150Z,95414.44
2022-11-24T17:26:56.767Z,95426.34
2022-11-24T17:29:23.847Z,95417.28
2022-11-24T17:31:51.004Z,95408.22
2022-11-24T17:34:18.347Z,95400.34
2022-11-24T17:36:45.387Z,95405.19
2022-11-24T17:39:12.547Z,95408.81
2022-11-24T17:41:39.827Z,95415.63
2022-11-24T17:44:08.367Z,95421.47
2022-11-24T17:46:35.668Z,95424.53
2022-11-24T17:49:03.562Z,95417.66
2022-11-24T17:51:30.687Z,95419.28
2022-11-24T17:53:57.847Z,95412.63
2022-11-24T17:56:27.357Z,95417.28
2022-11-24T17:58:56.132Z,95417.28
2022-11-24T18:01:25.766Z,95425.94
2022-11-24T18:03:53.833Z,95425.16
2022-11-24T18:06:21.679Z,95425.53
2022-11-24T18:08:48.783Z,95424.09
2022-11-24T18:11:18.010Z,95435.19
2022-11-24T18:14:01.610Z,95438.25
2022-11-24T18:16:33.166Z,95447.53
2022-11-24T18:19:10.424Z,95445.09
2022-11-24T18:21:38.984Z,95446.13
2022-11-24T18:24:07.089Z,95460.00
2022-11-24T18:26:34.247Z,95456.19
2022-11-24T18:29:01.512Z,95457.44
2022-11-24T18:31:30.048Z,95447.13
2022-11-24T18:33:57.367Z,95448.78
2022-11-24T18:36:29.677Z,95451.41
2022-11-24T18:38:57.708Z,95463.31
2022-11-24T18:41:24.907Z,95454.84
2022-11-24T18:43:52.068Z,95456.28
2022-11-24T18:46:21.010Z,95449.38
2022-11-24T18:48:50.868Z,95445.78
2022-11-24T18:51:18.967Z,95443.00
2022-11-24T18:53:46.898Z,95444.63
2022-11-24T18:56:17.880Z,95452.31
2022-11-24T18:58:45.787Z,95447.69
2022-11-24T19:01:15.636Z,95446.69
2022-11-24T19:03:48.354Z,95436.78
2022-11-24T19:06:20.528Z,95433.34
2022-11-24T19:08:48.753Z,95431.72
2022-11-24T19:11:20.236Z,95420.63
2022-11-24T19:13:48.088Z,95420.66
2022-11-24T19:16:21.110Z,95416.03
2022-11-24T19:18:53.667Z,95412.00
2022-11-24T19:21:23.787Z,95413.41
2022-11-24T19:24:07.648Z,95406.97
2022-11-24T19:26:40.569Z,95421.44
2022-11-24T19:29:09.827Z,95423.06
2022-11-24T19:31:38.968Z,95422.69
2022-11-24T19:34:08.481Z,95432.59
2022-11-24T19:36:38.110Z,95439.22
2022-11-24T19:39:05.770Z,95427.94
2022-11-24T19:41:34.007Z,95423.88
2022-11-24T19:44:02.070Z,95429.97
2022-11-24T19:46:30.101Z,95428.97
2022-11-24T19:49:01.558Z,95424.34
2022-11-24T19:51:31.230Z,95422.09
2022-11-24T19:54:00.597Z,95421.13
2022-11-24T19:56:31.382Z,95416.66
2022-11-24T19:58:58.826Z,95415.47
2022-11-24T20:01:27.940Z,95427.16
2022-11-24T20:03:57.172Z,95419.16
2022-11-24T20:06:25.069Z,95418.72
2022-11-24T20:08:52.553Z,95425.28
2022-11-24T20:11:22.689Z,95415.09
2022-11-24T20:13:50.746Z,95413.59
2022-11-24T20:16:19.965Z,95412.28
2022-11-24T20:18:48.452Z,95417.22
2022-11-24T20:21:18.889Z,95418.50
2022-11-24T20:23:53.208Z,95424.69
2022-11-24T20:26:27.520Z,95424.13
2022-11-24T20:28:57.607Z,95424.91
2022-11-24T20:31:27.166Z,95427.66
2022-11-24T20:33:54.931Z,95429.78
2022-11-24T20:36:24.929Z,95432.28
2022-11-24T20:39:03.337Z,95435.34
2022-11-24T20:41:47.289Z,95439.63
2022-11-24T20:44:21.117Z,95435.81
2022-11-24T20:46:51.987Z,95450.09
2022-11-24T20:49:21.370Z,95448.91
2022-11-24T20:51:49.430Z,95438.03
2022-11-24T20:54:22.874Z,95445.50
2022-11-24T20:56:52.407Z,95444.91
2022-11-24T20:59:22.426Z,95434.03
2022-11-24T21:01:51.670Z,95440.06
2022-11-24T21:04:22.538Z,95444.31
2022-11-24T21:06:50.750Z,95447.34
2022-11-24T21:09:19.206Z,95451.34
2022-11-24T21:11:47.690Z,95454.19
2022-11-24T21:14:16.167Z,95461.44
2022-11-24T21:16:43.412Z,95465.09
2022-11-24T21:19:13.130Z,95458.63
2022-11-24T21:21:42.019Z,95453.81
2022-11-24T21:24:13.755Z,95461.25
2022-11-24T21:26:42.329Z,95461.25
2022-11-24T21:29:12.387Z,95460.63
2022-11-24T21:31:41.808Z,95459.03
2022-11-24T21:34:10.069Z,95458.84
2022-11-24T21:36:43.337Z,95465.50
2022-11-24T21:39:11.747Z,95470.72
2022-11-24T21:41:39.046Z,95476.56
2022-11-24T21:44:06.181Z,95485.03
2022-11-24T21:46:33.327Z,95473.97
2022-11-24T21:49:02.750Z,95479.19
2022-11-24T21:51:30.167Z,95481.22
2022-11-24T21:53:57.328Z,95480.63
2022-11-24T21:56:24.647Z,95490.88
2022-11-24T21:58:54.147Z,95493.50
2022-11-24T22:01:23.682Z,95499.34
2022-11-24T22:03:51.129Z,95503.19
2022-11-24T22:06:20.320Z,95504.19
2022-11-24T22:08:49.985Z,95512.28
2022-11-24T22:11:19.627Z,95510.88
2022-11-24T22:13:48.254Z,95519.72
2022-11-24T22:16:17.641Z,95516.28
2022-11-24T22:18:45.868Z,95520.13
2022-11-24T22:21:15.009Z,95511.84
2022-11-24T22:23:44.208Z,95510.25
2022-11-24T22:26:13.946Z,95513.28
2022-11-24T22:28:42.268Z,95515.88
2022-11-24T22:31:12.641Z,95512.88
2022-11-24T22:33:40.210Z,95509.44
2022-11-24T22:36:08.646Z,95515.88
2022-11-24T22:38:36.788Z,95515.09
2022-11-24T22:41:07.987Z,95522.34
2022-11-24T22:43:36.968Z,95524.78
2022-11-24T22:46:05.490Z,95532.44
2022-11-24T22:48:34.128Z,95543.53
2022-11-24T22:51:02.867Z,95544.50
2022-11-24T22:53:30.190Z,95545.75
2022-11-24T22:56:00.247Z,95556.84
2022-11-24T22:58:28.975Z,95557.63
2022-11-24T23:00:56.107Z,95558.03
2022-11-24T23:03:23.313Z,95563.88
2022-11-24T23:05:50.447Z,95557.00
2022-11-24T23:08:17.508Z,95554.59
2022-11-24T23:10:44.488Z,95558.84
2022-11-24T23:13:11.608Z,95557.44
2022-11-24T23:15:40.167Z,95555.00
2022-11-24T23:18:07.265Z,95560.63
2022-11-24T23:20:35.111Z,95567.91
2022-11-24T23:23:02.227Z,95566.88
2022-11-24T23:25:29.387Z,95560.63
2022-11-24T23:27:56.387Z,95550.38
2022-11-24T23:30:23.566Z,95539.28
2022-11-24T23:32:52.845Z,95525.38
2022-11-24T23:35:19.928Z,95534.03
2022-11-24T23:38:06.981Z,95530.00
2022-11-24T23:40:35.026Z,95521.94
2022-11-24T23:43:02.186Z,95517.09
2022-11-24T23:45:29.266Z,95532.00
2022-11-24T23:47:57.827Z,95545.31
2022-11-24T23:50:24.926Z,95542.31
2022-11-24T23:52:54.658Z,95539.47
2022-11-24T23:55:21.749Z,95552.97
2022-11-24T23:57:48.828Z,95546.72
